Time;durP1;ratioP1;P1;durP2;ratioP2;P2;SDS_P1;SDS_P2;PMS_P1;PMS_P2;Temp;Humidity;BMP_temperature;BMP_pressure;BME280_temperature;BME280_humidity;BME280_pressure;Samples;Min_cycle;Max_cycle;Signal;HPM_P1;HPM_P2
2023/09/26 00:01:54;;;;;;;3.83;3.03;;;;;;;;;;6292357;22;20018;-79
2023/09/26 00:04:20;;;;;;;3.55;2.85;;;;;;;;;;6293436;22;20059;-79
2023/09/26 00:06:46;;;;;;;4.30;3.33;;;;;;;;;;6295649;22;20015;-80
2023/09/26 00:09:12;;;;;;;3.13;2.83;;;;;;;;;;6293301;22;20022;-80
2023/09/26 00:11:38;;;;;;;5.93;3.25;;;;;;;;;;6293301;22;20079;-80
2023/09/26 00:14:05;;;;;;;4.63;3.20;;;;;;;;;;6292284;22;20011;-80
2023/09/26 00:16:31;;;;;;;5.03;3.35;;;;;;;;;;6291760;22;20019;-80
2023/09/26 00:18:57;;;;;;;3.83;3.13;;;;;;;;;;6290515;22;20019;-80
2023/09/26 00:21:24;;;;;;;4.00;3.38;;;;;;;;;;6292007;22;20057;-80
2023/09/26 00:23:50;;;;;;;3.45;3.15;;;;;;;;;;6291518;22;20019;-80
2023/09/26 00:26:16;;;;;;;4.30;3.45;;;;;;;;;;6263909;22;20034;-80
2023/09/26 00:28:45;;;;;;;4.05;2.95;;;;;;;;;;6317297;22;20015;-80
2023/09/26 00:31:11;;;;;;;5.88;3.58;;;;;;;;;;6291033;22;20054;-80
2023/09/26 00:33:37;;;;;;;4.18;3.08;;;;;;;;;;6293967;22;20030;-80
2023/09/26 00:36:07;;;;;;;4.20;3.22;;;;;;;;;;6294481;22;20015;-80
2023/09/26 00:38:33;;;;;;;;;;;;;;;;;;6297007;22;20098;-80
2023/09/26 00:40:59;;;;;;;3.30;2.95;;;;;;;;;;6323173;22;19911;-79
2023/09/26 00:43:25;;;;;;;4.72;3.33;;;;;;;;;;6298213;22;20011;-79
2023/09/26 00:45:55;;;;;;;3.42;3.13;;;;;;;;;;6299968;22;20022;-79
2023/09/26 00:48:23;;;;;;;3.95;3.55;;;;;;;;;;6326698;22;20019;-79
2023/09/26 00:50:49;;;;;;;3.75;3.13;;;;;;;;;;6319307;22;20021;-79
2023/09/26 00:53:15;;;;;;;4.75;3.40;;;;;;;;;;6319049;22;20042;-80
2023/09/26 00:55:41;;;;;;;4.55;3.30;;;;;;;;;;6317618;22;20455;-80
2023/09/26 00:58:07;;;;;;;5.40;3.55;;;;;;;;;;6317551;22;20031;-80
2023/09/26 01:00:33;;;;;;;3.88;3.47;;;;;;;;;;6318075;22;20011;-79
2023/09/26 01:03:00;;;;;;;4.53;3.00;;;;;;;;;;6317803;22;20011;-79
2023/09/26 01:05:26;;;;;;;4.15;3.15;;;;;;;;;;6291290;22;20015;-79
2023/09/26 01:07:52;;;;;;;5.28;3.58;;;;;;;;;;6290351;22;20038;-79
2023/09/26 01:10:18;;;;;;;3.42;3.13;;;;;;;;;;6289387;22;20022;-79
2023/09/26 01:12:44;;;;;;;4.72;3.42;;;;;;;;;;6289573;22;20019;-79
2023/09/26 01:15:10;;;;;;;4.13;3.30;;;;;;;;;;6316694;22;20022;-79
2023/09/26 01:17:36;;;;;;;3.97;3.28;;;;;;;;;;6290482;22;20023;-80
2023/09/26 01:20:12;;;;;;;4.70;4.20;;;;;;;;;;6289719;22;20011;-80
2023/09/26 01:22:41;;;;;;;4.50;3.33;;;;;;;;;;6289093;22;20015;-80
2023/09/26 01:25:07;;;;;;;4.57;3.17;;;;;;;;;;6316105;22;20009;-80
2023/09/26 01:27:34;;;;;;;3.90;3.35;;;;;;;;;;6282563;22;20069;-78
2023/09/26 01:30:00;;;;;;;5.68;3.75;;;;;;;;;;6310767;22;20334;-78
2023/09/26 01:32:26;;;;;;;4.90;3.70;;;;;;;;;;6285093;22;20142;-78
2023/09/26 01:34:52;;;;;;;4.40;3.60;;;;;;;;;;6311414;22;20023;-78
2023/09/26 01:37:20;;;;;;;4.78;3.97;;;;;;;;;;6281858;22;20019;-78
2023/09/26 01:39:46;;;;;;;5.00;3.70;;;;;;;;;;6283383;22;20041;-79
2023/09/26 01:42:12;;;;;;;5.32;4.00;;;;;;;;;;6257793;22;20015;-78
2023/09/26 01:44:38;;;;;;;5.65;3.65;;;;;;;;;;6311322;22;20018;-78
2023/09/26 01:47:04;;;;;;;5.22;3.72;;;;;;;;;;6310300;22;20086;-78
2023/09/26 01:49:31;;;;;;;5.80;4.10;;;;;;;;;;6310918;22;20055;-78
2023/09/26 01:51:57;;;;;;;5.18;3.53;;;;;;;;;;6310123;22;20015;-79
2023/09/26 01:54:23;;;;;;;6.78;4.20;;;;;;;;;;6283119;22;20015;-79
2023/09/26 01:56:49;;;;;;;5.50;4.25;;;;;;;;;;6283029;22;20026;-78
2023/09/26 01:59:15;;;;;;;5.47;4.18;;;;;;;;;;6283041;22;20523;-78
2023/09/26 02:01:41;;;;;;;5.22;4.50;;;;;;;;;;6284155;22;20072;-78
2023/09/26 02:04:07;;;;;;;5.35;4.60;;;;;;;;;;6284002;22;20072;-78
2023/09/26 02:06:33;;;;;;;6.00;4.80;;;;;;;;;;6283128;22;20045;-78
2023/09/26 02:08:59;;;;;;;5.65;4.75;;;;;;;;;;6282935;22;20015;-78
2023/09/26 02:11:25;;;;;;;7.38;4.82;;;;;;;;;;6282918;22;20031;-79
2023/09/26 02:13:51;;;;;;;5.50;4.47;;;;;;;;;;6310300;22;20019;-79
2023/09/26 02:16:17;;;;;;;7.03;5.22;;;;;;;;;;6281089;22;20239;-78
2023/09/26 02:18:43;;;;;;;7.97;5.50;;;;;;;;;;6257706;22;20320;-78
2023/09/26 02:21:15;;;;;;;6.47;5.05;;;;;;;;;;6256453;22;20019;-78
2023/09/26 02:23:41;;;;;;;6.85;5.28;;;;;;;;;;6309279;22;20038;-79
2023/09/26 02:26:07;;;;;;;6.82;4.88;;;;;;;;;;6308848;22;20517;-79
2023/09/26 02:28:33;;;;;;;5.15;4.65;;;;;;;;;;6308060;22;20015;-79
2023/09/26 02:30:59;;;;;;;5.65;5.05;;;;;;;;;;6280069;22;20015;-78
2023/09/26 02:33:25;;;;;;;5.55;5.00;;;;;;;;;;6307923;22;20088;-78
2023/09/26 02:35:51;;;;;;;8.65;5.75;;;;;;;;;;6280960;22;20025;-78
2023/09/26 02:38:17;;;;;;;6.13;5.10;;;;;;;;;;6280792;22;20042;-78
2023/09/26 02:40:43;;;;;;;6.10;5.50;;;;;;;;;;6255965;22;20011;-78
2023/09/26 02:43:09;;;;;;;5.80;5.20;;;;;;;;;;6282488;22;20030;-78
2023/09/26 02:45:35;;;;;;;6.25;5.38;;;;;;;;;;6280160;22;20015;-78
2023/09/26 02:48:02;;;;;;;5.68;5.10;;;;;;;;;;6308079;22;20102;-78
2023/09/26 02:50:28;;;;;;;6.18;5.57;;;;;;;;;;6309705;22;20038;-78
2023/09/26 02:52:54;;;;;;;7.88;6.78;;;;;;;;;;6308616;22;20018;-78
2023/09/26 02:55:20;;;;;;;6.50;5.05;;;;;;;;;;6307963;22;20015;-78
2023/09/26 02:57:46;;;;;;;6.45;5.50;;;;;;;;;;6309069;22;20015;-78
2023/09/26 03:00:19;;;;;;;6.97;5.63;;;;;;;;;;6308410;22;20023;-78
2023/09/26 03:02:45;;;;;;;6.68;5.18;;;;;;;;;;6308504;22;20007;-78
2023/09/26 03:05:12;;;;;;;7.53;6.47;;;;;;;;;;6305545;22;20061;-78
2023/09/26 03:07:39;;;;;;;8.00;5.72;;;;;;;;;;6305794;22;20098;-79
2023/09/26 03:10:05;;;;;;;7.97;5.60;;;;;;;;;;6281169;22;20015;-79
2023/09/26 03:12:31;;;;;;;6.80;5.60;;;;;;;;;;6281191;22;20138;-78
2023/09/26 03:14:57;;;;;;;6.28;5.22;;;;;;;;;;6280023;22;20453;-78
2023/09/26 03:17:23;;;;;;;7.25;5.53;;;;;;;;;;6309221;22;20015;-78
2023/09/26 03:19:49;;;;;;;6.45;5.82;;;;;;;;;;6255430;22;20011;-78
2023/09/26 03:22:15;;;;;;;7.63;6.70;;;;;;;;;;6306684;22;20390;-78
2023/09/26 03:24:41;;;;;;;8.15;6.32;;;;;;;;;;6307139;22;20133;-78
2023/09/26 03:27:07;;;;;;;7.45;6.28;;;;;;;;;;6279184;22;20055;-79
2023/09/26 03:29:33;;;;;;;8.30;6.82;;;;;;;;;;6307696;22;20068;-78
2023/09/26 03:31:59;;;;;;;10.98;6.25;;;;;;;;;;6279262;22;20086;-78
2023/09/26 03:34:25;;;;;;;6.80;5.80;;;;;;;;;;6278950;22;20038;-79
2023/09/26 03:36:51;;;;;;;6.47;5.75;;;;;;;;;;6280791;22;20015;-79
2023/09/26 03:39:17;;;;;;;7.35;5.63;;;;;;;;;;6307081;22;20093;-79
2023/09/26 03:41:43;;;;;;;6.53;5.68;;;;;;;;;;6281710;22;20019;-79
2023/09/26 03:44:09;;;;;;;8.65;6.35;;;;;;;;;;6307521;22;20466;-78
2023/09/26 03:46:35;;;;;;;7.20;6.00;;;;;;;;;;6308755;22;20106;-78
2023/09/26 03:49:02;;;;;;;8.27;6.63;;;;;;;;;;6280238;22;20026;-78
2023/09/26 03:51:28;;;;;;;8.13;6.25;;;;;;;;;;6278955;22;20011;-78
2023/09/26 03:53:54;;;;;;;8.45;6.90;;;;;;;;;;6306289;22;20015;-78
2023/09/26 03:56:20;;;;;;;7.60;6.60;;;;;;;;;;6282252;22;20023;-78
2023/09/26 03:58:46;;;;;;;8.30;6.93;;;;;;;;;;6310592;22;20011;-78
2023/09/26 04:01:13;;;;;;;8.57;7.05;;;;;;;;;;6313286;22;20039;-78
2023/09/26 04:03:43;;;;;;;8.73;7.10;;;;;;;;;;6320507;22;20011;-79
2023/09/26 04:06:12;;;;;;;9.00;6.82;;;;;;;;;;6286961;22;20020;-79
2023/09/26 04:08:38;;;;;;;7.88;7.07;;;;;;;;;;6309648;22;20018;-78
2023/09/26 04:11:04;;;;;;;8.82;6.75;;;;;;;;;;6307752;22;20057;-78
2023/09/26 04:13:30;;;;;;;8.88;6.78;;;;;;;;;;6307667;22;20359;-78
2023/09/26 04:15:57;;;;;;;7.68;6.70;;;;;;;;;;6307790;22;20039;-78
2023/09/26 04:18:23;;;;;;;9.32;6.35;;;;;;;;;;6307476;22;20015;-78
2023/09/26 04:20:50;;;;;;;8.75;6.88;;;;;;;;;;6279117;22;20018;-78
2023/09/26 04:23:16;;;;;;;7.75;6.63;;;;;;;;;;6279476;22;20019;-78
2023/09/26 04:25:42;;;;;;;10.63;7.35;;;;;;;;;;6253838;22;20047;-78
2023/09/26 04:28:08;;;;;;;9.77;6.97;;;;;;;;;;6279371;22;20023;-78
2023/09/26 04:30:39;;;;;;;8.30;7.13;;;;;;;;;;6279040;22;20390;-78
2023/09/26 04:33:05;;;;;;;;;;;;;;;;;;6308182;22;20022;-78
2023/09/26 04:35:31;;;;;;;8.25;5.50;;;;;;;;;;6307133;22;19911;-78
2023/09/26 04:37:57;;;;;;;9.63;6.65;;;;;;;;;;6279764;22;20023;-78
2023/09/26 04:40:23;;;;;;;8.63;6.93;;;;;;;;;;6307597;22;20431;-79
2023/09/26 04:42:49;;;;;;;8.02;7.20;;;;;;;;;;6307216;22;20037;-79
2023/09/26 04:45:15;;;;;;;8.73;6.82;;;;;;;;;;6279076;22;20019;-78
2023/09/26 04:47:42;;;;;;;9.73;8.57;;;;;;;;;;6281143;22;20023;-79
2023/09/26 04:50:08;;;;;;;9.43;7.70;;;;;;;;;;6306109;22;20313;-79
2023/09/26 04:52:35;;;;;;;8.40;7.43;;;;;;;;;;6281042;22;20399;-79
2023/09/26 04:55:01;;;;;;;8.38;7.35;;;;;;;;;;6276781;22;20340;-79
2023/09/26 04:57:28;;;;;;;9.88;6.93;;;;;;;;;;6277327;22;20069;-79
2023/09/26 04:59:54;;;;;;;8.82;7.13;;;;;;;;;;6307674;22;20130;-78
2023/09/26 05:02:20;;;;;;;7.47;6.78;;;;;;;;;;6280641;22;20023;-78
2023/09/26 05:04:48;;;;;;;11.35;7.22;;;;;;;;;;6308529;22;20015;-78
2023/09/26 05:07:14;;;;;;;9.32;6.93;;;;;;;;;;6308074;22;20026;-78
2023/09/26 05:09:40;;;;;;;11.40;6.93;;;;;;;;;;6281762;22;20069;-78
2023/09/26 05:12:06;;;;;;;8.57;7.72;;;;;;;;;;6253033;22;20046;-78
2023/09/26 05:14:32;;;;;;;8.73;7.80;;;;;;;;;;6306045;22;20914;-78
2023/09/26 05:16:58;;;;;;;10.98;7.65;;;;;;;;;;6278821;22;20050;-78
2023/09/26 05:19:24;;;;;;;8.85;7.00;;;;;;;;;;6279040;22;20115;-77
2023/09/26 05:21:50;;;;;;;8.20;7.20;;;;;;;;;;6306002;22;20018;-77
2023/09/26 05:24:17;;;;;;;9.07;7.22;;;;;;;;;;6278322;22;20325;-78
2023/09/26 05:26:43;;;;;;;8.77;6.65;;;;;;;;;;6278636;22;20026;-78
2023/09/26 05:29:10;;;;;;;7.63;6.20;;;;;;;;;;6306122;22;20078;-78
2023/09/26 05:31:36;;;;;;;7.43;6.47;;;;;;;;;;6305617;22;20015;-78
2023/09/26 05:34:03;;;;;;;6.72;5.95;;;;;;;;;;6304074;22;20053;-77
2023/09/26 05:36:29;;;;;;;7.75;6.47;;;;;;;;;;6278534;22;20011;-78
2023/09/26 05:38:55;;;;;;;7.30;5.97;;;;;;;;;;6279229;22;20019;-78
2023/09/26 05:41:21;;;;;;;7.38;6.65;;;;;;;;;;6279250;22;20377;-78
2023/09/26 05:43:47;;;;;;;7.78;6.25;;;;;;;;;;6303229;22;20015;-78
2023/09/26 05:46:13;;;;;;;8.13;7.28;;;;;;;;;;6304077;22;20317;-78
2023/09/26 05:48:40;;;;;;;9.32;7.22;;;;;;;;;;6305694;22;20080;-77
2023/09/26 05:51:06;;;;;;;9.25;7.07;;;;;;;;;;6312488;22;20011;-81
2023/09/26 05:53:32;;;;;;;8.05;6.90;;;;;;;;;;6308782;22;20011;-78
2023/09/26 05:55:58;;;;;;;8.88;6.82;;;;;;;;;;6312852;22;20125;-79
2023/09/26 05:58:24;;;;;;;7.63;6.78;;;;;;;;;;6285920;22;20046;-79
2023/09/26 06:00:53;;;;;;;8.25;6.50;;;;;;;;;;6285923;22;20094;-79
2023/09/26 06:03:19;;;;;;;9.40;7.28;;;;;;;;;;6285328;22;20093;-79
2023/09/26 06:05:45;;;;;;;8.38;6.30;;;;;;;;;;6286531;22;20011;-79
2023/09/26 06:08:12;;;;;;;9.70;7.32;;;;;;;;;;6292144;22;20390;-79
2023/09/26 06:10:38;;;;;;;6.68;5.53;;;;;;;;;;6321986;22;20011;-79
2023/09/26 06:13:04;;;;;;;6.95;6.13;;;;;;;;;;6322338;22;20051;-79
2023/09/26 06:15:31;;;;;;;9.10;6.43;;;;;;;;;;6321203;22;20015;-79
2023/09/26 06:18:00;;;;;;;7.50;6.15;;;;;;;;;;6293745;22;20047;-79
2023/09/26 06:20:29;;;;;;;8.10;6.50;;;;;;;;;;6320857;22;20050;-79
2023/09/26 06:22:56;;;;;;;7.88;6.50;;;;;;;;;;6292869;22;20412;-79
2023/09/26 06:25:22;;;;;;;8.35;6.00;;;;;;;;;;6322115;22;20018;-79
2023/09/26 06:27:49;;;;;;;9.10;6.18;;;;;;;;;;6321739;22;20034;-79
2023/09/26 06:30:15;;;;;;;8.25;6.15;;;;;;;;;;6295399;22;20034;-79
2023/09/26 06:32:41;;;;;;;7.15;5.57;;;;;;;;;;6268491;22;20041;-79
2023/09/26 06:35:07;;;;;;;7.18;6.00;;;;;;;;;;6294774;22;20035;-79
2023/09/26 06:37:33;;;;;;;7.00;5.95;;;;;;;;;;6322686;22;20023;-79
2023/09/26 06:40:04;;;;;;;8.80;6.10;;;;;;;;;;6322459;22;20015;-80
2023/09/26 06:42:30;;;;;;;7.78;5.70;;;;;;;;;;6321442;22;20497;-79
2023/09/26 06:44:57;;;;;;;6.93;6.22;;;;;;;;;;6292589;22;20011;-79
2023/09/26 06:47:24;;;;;;;6.88;5.85;;;;;;;;;;6322314;22;20020;-79
2023/09/26 06:49:50;;;;;;;6.60;5.80;;;;;;;;;;6295872;22;20020;-79
2023/09/26 06:52:16;;;;;;;7.45;5.78;;;;;;;;;;6321311;22;20047;-79
2023/09/26 06:54:42;;;;;;;10.68;6.57;;;;;;;;;;6322182;22;20015;-79
2023/09/26 06:57:09;;;;;;;8.75;6.18;;;;;;;;;;6321361;22;20019;-79
2023/09/26 06:59:35;;;;;;;7.40;5.68;;;;;;;;;;6321169;22;20011;-79
2023/09/26 07:02:02;;;;;;;7.82;5.85;;;;;;;;;;6321160;22;20011;-79
2023/09/26 07:04:28;;;;;;;6.47;5.53;;;;;;;;;;6322704;22;20019;-79
2023/09/26 07:06:54;;;;;;;6.63;5.90;;;;;;;;;;6322211;22;20051;-79
2023/09/26 07:09:20;;;;;;;9.35;5.57;;;;;;;;;;6293655;22;20019;-79
2023/09/26 07:11:49;;;;;;;7.68;5.68;;;;;;;;;;6321710;22;20022;-79
2023/09/26 07:14:15;;;;;;;6.53;5.25;;;;;;;;;;6294405;22;20501;-79
2023/09/26 07:16:41;;;;;;;6.25;5.50;;;;;;;;;;6323690;22;20118;-79
2023/09/26 07:19:07;;;;;;;7.15;5.53;;;;;;;;;;6295886;22;20088;-79
2023/09/26 07:21:34;;;;;;;9.25;4.97;;;;;;;;;;6322099;22;20056;-79
2023/09/26 07:24:00;;;;;;;7.82;5.70;;;;;;;;;;6321633;22;20011;-79
2023/09/26 07:26:26;;;;;;;7.22;5.60;;;;;;;;;;6321444;22;20018;-79
2023/09/26 07:28:52;;;;;;;9.65;5.57;;;;;;;;;;6322921;22;20462;-79
2023/09/26 07:31:19;;;;;;;5.47;4.97;;;;;;;;;;6300269;22;20015;-79
2023/09/26 07:33:46;;;;;;;7.07;5.15;;;;;;;;;;6326197;22;20011;-79
2023/09/26 07:36:12;;;;;;;6.85;5.07;;;;;;;;;;6319943;22;20019;-82
2023/09/26 07:38:38;;;;;;;7.03;5.07;;;;;;;;;;6286556;22;20042;-79
2023/09/26 07:41:04;;;;;;;6.28;4.88;;;;;;;;;;6264127;22;20016;-78
2023/09/26 07:43:32;;;;;;;6.85;4.85;;;;;;;;;;6285669;22;20447;-79
2023/09/26 07:46:11;;;;;;;6.38;5.13;;;;;;;;;;6286649;22;20011;-79
2023/09/26 07:48:37;;;;;;;7.00;4.82;;;;;;;;;;6311902;22;20024;-80
2023/09/26 07:51:04;;;;;;;6.50;5.90;;;;;;;;;;6286906;22;20011;-79
2023/09/26 07:53:30;;;;;;;7.40;5.45;;;;;;;;;;6284974;22;20026;-79
2023/09/26 07:55:56;;;;;;;6.55;5.28;;;;;;;;;;6264264;22;20015;-79
2023/09/26 07:58:22;;;;;;;7.10;5.30;;;;;;;;;;6289096;22;20044;-79
2023/09/26 08:00:48;;;;;;;8.50;5.03;;;;;;;;;;6290506;22;20034;-79
2023/09/26 08:03:14;;;;;;;6.07;4.80;;;;;;;;;;6287620;22;20045;-79
2023/09/26 08:05:40;;;;;;;6.05;4.78;;;;;;;;;;6267578;22;20026;-80
2023/09/26 08:08:06;;;;;;;6.53;4.68;;;;;;;;;;6293431;22;20011;-80
2023/09/26 08:10:36;;;;;;;6.13;4.40;;;;;;;;;;6292352;22;20015;-79
2023/09/26 08:13:02;;;;;;;6.90;4.70;;;;;;;;;;6268657;22;20015;-79
2023/09/26 08:15:31;;;;;;;7.18;5.18;;;;;;;;;;6299868;22;20011;-79
2023/09/26 08:17:57;;;;;;;5.18;4.38;;;;;;;;;;6300484;22;19999;-79
2023/09/26 08:20:24;;;;;;;6.00;4.85;;;;;;;;;;6294886;22;20351;-80
2023/09/26 08:22:50;;;;;;;6.78;5.20;;;;;;;;;;6291040;22;20007;-79
2023/09/26 08:25:16;;;;;;;6.03;4.63;;;;;;;;;;6285592;22;20042;-80
2023/09/26 08:27:42;;;;;;;6.95;4.63;;;;;;;;;;6319690;22;20057;-80
2023/09/26 08:30:11;;;;;;;5.78;4.57;;;;;;;;;;6290309;22;20011;-80
2023/09/26 08:32:38;;;;;;;7.70;4.78;;;;;;;;;;6295149;22;20011;-81
2023/09/26 08:35:05;;;;;;;5.47;4.75;;;;;;;;;;6267566;22;20011;-81
2023/09/26 08:37:33;;;;;;;5.60;4.38;;;;;;;;;;6294099;22;20026;-81
2023/09/26 08:39:59;;;;;;;5.95;4.65;;;;;;;;;;6319325;22;20022;-83
2023/09/26 08:42:27;;;;;;;6.28;4.70;;;;;;;;;;6289638;22;20042;-84
2023/09/26 08:44:54;;;;;;;6.88;4.82;;;;;;;;;;6288531;22;20390;-83
2023/09/26 08:47:26;;;;;;;8.07;4.63;;;;;;;;;;6287125;22;20437;-84
2023/09/26 08:49:55;;;;;;;5.80;4.78;;;;;;;;;;6284659;22;20395;-84
2023/09/26 08:52:24;;;;;;;5.50;4.75;;;;;;;;;;6314932;22;20011;-82
2023/09/26 08:54:51;;;;;;;6.07;4.05;;;;;;;;;;6289873;22;20345;-81
2023/09/26 08:57:20;;;;;;;5.30;4.30;;;;;;;;;;6264526;22;20524;-80
2023/09/26 08:59:47;;;;;;;5.22;4.35;;;;;;;;;;6318205;22;20015;-81
2023/09/26 09:02:13;;;;;;;5.97;4.22;;;;;;;;;;6317534;22;20015;-81
2023/09/26 09:04:41;;;;;;;4.90;3.67;;;;;;;;;;6292040;22;20067;-81
2023/09/26 09:07:07;;;;;;;4.97;4.18;;;;;;;;;;6290690;22;20348;-81
2023/09/26 09:09:33;;;;;;;3.75;3.20;;;;;;;;;;6291909;22;20022;-81
2023/09/26 09:11:59;;;;;;;4.95;4.05;;;;;;;;;;6289930;22;20050;-81
2023/09/26 09:14:32;;;;;;;4.32;3.60;;;;;;;;;;6264844;22;20016;-81
2023/09/26 09:16:59;;;;;;;4.63;4.22;;;;;;;;;;6265447;22;20019;-81
2023/09/26 09:19:47;;;;;;;4.47;3.60;;;;;;;;;;6287261;22;20015;-83
2023/09/26 09:22:17;;;;;;;5.40;3.60;;;;;;;;;;6286631;22;20042;-82
2023/09/26 09:24:43;;;;;;;5.70;3.80;;;;;;;;;;6289079;22;20448;-82
2023/09/26 09:27:09;;;;;;;5.75;3.60;;;;;;;;;;6290655;22;20357;-80
2023/09/26 09:29:35;;;;;;;5.07;3.95;;;;;;;;;;6267092;22;20011;-80
2023/09/26 09:32:02;;;;;;;5.78;3.40;;;;;;;;;;6320830;22;20016;-83
2023/09/26 09:34:28;;;;;;;5.30;3.90;;;;;;;;;;6318542;22;20037;-81
2023/09/26 09:36:57;;;;;;;4.55;3.55;;;;;;;;;;6319665;22;20467;-82
2023/09/26 09:39:23;;;;;;;5.43;3.55;;;;;;;;;;6319906;22;20012;-81
2023/09/26 09:41:49;;;;;;;3.97;3.13;;;;;;;;;;6320919;22;20015;-81
2023/09/26 09:44:15;;;;;;;6.25;3.88;;;;;;;;;;6319155;22;20486;-83
2023/09/26 09:46:43;;;;;;;5.57;3.85;;;;;;;;;;6291937;22;20418;-82
2023/09/26 09:49:13;;;;;;;6.82;5.03;;;;;;;;;;6296762;22;20022;-82
2023/09/26 09:51:45;;;;;;;4.93;3.65;;;;;;;;;;6292587;22;20012;-85
2023/09/26 09:54:18;;;;;;;6.22;3.75;;;;;;;;;;6287919;22;20041;-85
2023/09/26 09:56:53;;;;;;;6.38;3.72;;;;;;;;;;6288422;22;20016;-85
2023/09/26 09:59:22;;;;;;;6.43;3.92;;;;;;;;;;6294069;22;20019;-82
2023/09/26 10:01:52;;;;;;;4.82;3.42;;;;;;;;;;6299011;22;20072;-82
2023/09/26 10:04:19;;;;;;;6.55;3.60;;;;;;;;;;6297546;22;20074;-82
2023/09/26 10:06:45;;;;;;;4.05;3.63;;;;;;;;;;6297197;22;20019;-83
2023/09/26 10:09:12;;;;;;;6.75;4.63;;;;;;;;;;6296473;22;20019;-82
2023/09/26 10:11:39;;;;;;;6.40;4.30;;;;;;;;;;6299180;22;19995;-82
2023/09/26 10:14:05;;;;;;;4.82;3.70;;;;;;;;;;6273956;22;20011;-82
2023/09/26 10:16:31;;;;;;;5.60;4.25;;;;;;;;;;6272100;22;20015;-82
2023/09/26 10:19:00;;;;;;;6.22;3.63;;;;;;;;;;6272503;22;20037;-82
2023/09/26 10:21:30;;;;;;;5.15;4.05;;;;;;;;;;6295855;22;20090;-81
2023/09/26 10:24:05;;;;;;;5.45;4.13;;;;;;;;;;6296050;22;20019;-81
2023/09/26 10:26:33;;;;;;;6.13;3.92;;;;;;;;;;6296922;22;20019;-81
2023/09/26 10:29:05;;;;;;;6.45;3.50;;;;;;;;;;6296123;22;20066;-81
2023/09/26 10:31:33;;;;;;;6.28;3.28;;;;;;;;;;6292066;22;20024;-80
2023/09/26 10:33:59;;;;;;;6.65;3.28;;;;;;;;;;6322567;22;20071;-83
2023/09/26 10:36:25;;;;;;;5.50;3.58;;;;;;;;;;6294349;22;20011;-82
2023/09/26 10:38:58;;;;;;;5.10;3.20;;;;;;;;;;6317430;22;20035;-83
2023/09/26 10:41:24;;;;;;;6.45;3.55;;;;;;;;;;6293624;22;20011;-81
2023/09/26 10:43:50;;;;;;;4.43;3.58;;;;;;;;;;6292760;22;20038;-82
2023/09/26 10:46:16;;;;;;;6.55;3.58;;;;;;;;;;6291966;22;20023;-82
2023/09/26 10:48:42;;;;;;;5.63;3.80;;;;;;;;;;6294351;22;20038;-81
2023/09/26 10:51:08;;;;;;;5.13;3.70;;;;;;;;;;6292278;22;20353;-81
2023/09/26 10:53:36;;;;;;;3.85;3.50;;;;;;;;;;6321645;22;20046;-81
2023/09/26 10:56:03;;;;;;;5.40;3.65;;;;;;;;;;6312918;22;20038;-81
2023/09/26 10:58:34;;;;;;;4.85;3.38;;;;;;;;;;6311353;22;20448;-81
2023/09/26 11:01:00;;;;;;;5.53;4.10;;;;;;;;;;6281994;22;20037;-81
2023/09/26 11:03:26;;;;;;;5.20;3.63;;;;;;;;;;6309883;22;20339;-82
2023/09/26 11:05:52;;;;;;;4.45;3.75;;;;;;;;;;6310748;22;20047;-81
2023/09/26 11:08:18;;;;;;;4.15;3.50;;;;;;;;;;6311715;22;20016;-81
2023/09/26 11:10:50;;;;;;;6.88;3.92;;;;;;;;;;6285340;22;20017;-81
2023/09/26 11:13:17;;;;;;;5.57;4.50;;;;;;;;;;6257348;22;20015;-82
2023/09/26 11:15:46;;;;;;;6.57;4.32;;;;;;;;;;6285178;22;20069;-82
2023/09/26 11:18:13;;;;;;;5.05;4.18;;;;;;;;;;6283865;22;20073;-81
2023/09/26 11:20:39;;;;;;;4.75;3.78;;;;;;;;;;6284765;22;20011;-82
2023/09/26 11:23:05;;;;;;;5.15;3.78;;;;;;;;;;6284834;22;20061;-82
2023/09/26 11:25:32;;;;;;;5.43;4.65;;;;;;;;;;6260357;22;20016;-81
2023/09/26 11:27:58;;;;;;;5.50;3.97;;;;;;;;;;6283880;22;20019;-81
2023/09/26 11:30:24;;;;;;;6.03;4.10;;;;;;;;;;6255857;22;20067;-83
2023/09/26 11:32:53;;;;;;;5.35;4.55;;;;;;;;;;6308438;22;20015;-83
2023/09/26 11:35:20;;;;;;;4.95;4.45;;;;;;;;;;6282217;22;20061;-82
2023/09/26 11:37:50;;;;;;;6.65;4.57;;;;;;;;;;6282151;22;20125;-82
2023/09/26 11:40:21;;;;;;;5.65;4.47;;;;;;;;;;6255828;22;20050;-82
2023/09/26 11:42:51;;;;;;;6.05;4.03;;;;;;;;;;6282103;22;20019;-82
2023/09/26 11:45:17;;;;;;;;;;;;;;;;;;6281361;22;20105;-82
2023/09/26 11:47:43;;;;;;;4.80;3.58;;;;;;;;;;6281653;22;19915;-82
2023/09/26 11:50:10;;;;;;;5.55;4.32;;;;;;;;;;6281090;22;20090;-82
2023/09/26 11:52:36;;;;;;;5.20;3.95;;;;;;;;;;6307545;22;20042;-82
2023/09/26 11:55:02;;;;;;;6.30;4.57;;;;;;;;;;6307259;22;20064;-82
2023/09/26 11:57:32;;;;;;;6.43;4.50;;;;;;;;;;6280485;22;20506;-82
2023/09/26 11:59:58;;;;;;;6.70;4.15;;;;;;;;;;6280004;22;20019;-82
2023/09/26 12:02:24;;;;;;;5.68;3.90;;;;;;;;;;6279069;22;20008;-82
2023/09/26 12:04:50;;;;;;;6.03;4.40;;;;;;;;;;6279913;22;20072;-79
2023/09/26 12:07:16;;;;;;;5.95;3.97;;;;;;;;;;6284618;22;20444;-80
2023/09/26 12:09:44;;;;;;;5.13;3.78;;;;;;;;;;6285298;22;20007;-80
2023/09/26 12:12:10;;;;;;;6.00;3.88;;;;;;;;;;6284531;22;20447;-80
2023/09/26 12:14:36;;;;;;;6.68;3.90;;;;;;;;;;6314212;22;20064;-80
2023/09/26 12:17:03;;;;;;;3.97;3.30;;;;;;;;;;6287037;22;20015;-80
2023/09/26 12:19:29;;;;;;;5.93;3.45;;;;;;;;;;6287061;22;20038;-80
2023/09/26 12:21:55;;;;;;;4.03;3.38;;;;;;;;;;6286363;22;20019;-80
2023/09/26 12:24:21;;;;;;;5.03;3.53;;;;;;;;;;6287467;22;20401;-80
2023/09/26 12:26:47;;;;;;;6.50;3.90;;;;;;;;;;6287108;22;20041;-79
2023/09/26 12:29:14;;;;;;;5.53;3.58;;;;;;;;;;6287304;22;20098;-79
2023/09/26 12:31:42;;;;;;;3.75;3.20;;;;;;;;;;6295920;22;20041;-79
2023/09/26 12:34:08;;;;;;;4.82;3.47;;;;;;;;;;6293286;22;20022;-79
2023/09/26 12:36:34;;;;;;;5.07;3.70;;;;;;;;;;6284117;22;20019;-79
2023/09/26 12:39:01;;;;;;;5.35;3.70;;;;;;;;;;6281108;22;20086;-79
2023/09/26 12:41:27;;;;;;;5.28;3.92;;;;;;;;;;6309682;22;20022;-79
2023/09/26 12:43:53;;;;;;;5.60;3.72;;;;;;;;;;6254668;22;20011;-79
2023/09/26 12:46:19;;;;;;;6.32;3.83;;;;;;;;;;6308441;22;20015;-79
2023/09/26 12:48:45;;;;;;;7.22;3.67;;;;;;;;;;6256456;22;20019;-79
2023/09/26 12:51:11;;;;;;;5.82;4.25;;;;;;;;;;6280471;22;20030;-79
2023/09/26 12:53:37;;;;;;;5.90;4.07;;;;;;;;;;6281226;22;20007;-79
2023/09/26 12:56:03;;;;;;;5.18;3.92;;;;;;;;;;6280835;22;20066;-79
2023/09/26 12:58:29;;;;;;;4.15;3.53;;;;;;;;;;6308264;22;20057;-79
2023/09/26 13:00:55;;;;;;;5.18;3.63;;;;;;;;;;6280529;22;20019;-79
2023/09/26 13:03:22;;;;;;;6.65;3.88;;;;;;;;;;6308165;22;20008;-79
2023/09/26 13:05:48;;;;;;;4.22;3.55;;;;;;;;;;6281233;22;20011;-79
2023/09/26 13:08:14;;;;;;;4.38;2.90;;;;;;;;;;6279744;22;20031;-79
2023/09/26 13:10:41;;;;;;;4.05;3.13;;;;;;;;;;6280867;22;20019;-79
2023/09/26 13:13:07;;;;;;;3.78;3.03;;;;;;;;;;6279209;22;20045;-79
2023/09/26 13:15:33;;;;;;;6.25;2.70;;;;;;;;;;6279721;22;20019;-79
2023/09/26 13:18:00;;;;;;;5.78;2.67;;;;;;;;;;6280279;22;20023;-79
2023/09/26 13:20:26;;;;;;;3.92;3.40;;;;;;;;;;6281224;22;20019;-79
2023/09/26 13:22:52;;;;;;;5.22;3.45;;;;;;;;;;6283036;22;20419;-79
2023/09/26 13:25:18;;;;;;;3.13;2.83;;;;;;;;;;6258120;22;20015;-79
2023/09/26 13:27:44;;;;;;;4.40;3.30;;;;;;;;;;6286855;22;20089;-79
2023/09/26 13:30:10;;;;;;;4.07;3.35;;;;;;;;;;6288188;22;20015;-79
2023/09/26 13:32:36;;;;;;;4.18;3.22;;;;;;;;;;6290388;22;20007;-79
2023/09/26 13:35:04;;;;;;;5.97;3.10;;;;;;;;;;6315092;22;20008;-79
2023/09/26 13:37:30;;;;;;;5.45;3.35;;;;;;;;;;6291102;22;20055;-79
2023/09/26 13:39:56;;;;;;;4.63;2.67;;;;;;;;;;6314158;22;20011;-79
2023/09/26 13:42:22;;;;;;;4.00;3.15;;;;;;;;;;6287723;22;20019;-79
2023/09/26 13:44:50;;;;;;;4.40;2.83;;;;;;;;;;6317705;22;20012;-79
2023/09/26 13:47:16;;;;;;;4.72;3.15;;;;;;;;;;6315661;22;20011;-79
2023/09/26 13:49:42;;;;;;;4.82;3.00;;;;;;;;;;6313651;22;20033;-79
2023/09/26 13:52:08;;;;;;;5.70;2.95;;;;;;;;;;6284082;22;20007;-79
2023/09/26 13:54:35;;;;;;;3.97;2.83;;;;;;;;;;6285385;22;20023;-79
2023/09/26 13:57:01;;;;;;;4.10;3.10;;;;;;;;;;6283905;22;20093;-79
2023/09/26 13:59:27;;;;;;;5.28;3.40;;;;;;;;;;6283855;22;20356;-79
2023/09/26 14:01:53;;;;;;;5.22;3.42;;;;;;;;;;6284995;22;20007;-79
2023/09/26 14:04:19;;;;;;;4.95;3.25;;;;;;;;;;6285556;22;20099;-79
2023/09/26 14:06:45;;;;;;;4.15;2.97;;;;;;;;;;6283957;22;20015;-79
2023/09/26 14:09:11;;;;;;;4.35;3.05;;;;;;;;;;6283661;22;20018;-79
2023/09/26 14:11:37;;;;;;;4.35;3.17;;;;;;;;;;6284036;22;20011;-79
2023/09/26 14:14:03;;;;;;;3.58;2.90;;;;;;;;;;6284619;22;20011;-79
2023/09/26 14:16:29;;;;;;;5.68;3.70;;;;;;;;;;6284223;22;20019;-79
2023/09/26 14:18:55;;;;;;;4.85;3.58;;;;;;;;;;6282255;22;20016;-82
2023/09/26 14:21:23;;;;;;;6.13;3.90;;;;;;;;;;6281047;22;20079;-83
2023/09/26 14:23:49;;;;;;;5.28;3.63;;;;;;;;;;6278750;22;20019;-84
2023/09/26 14:26:15;;;;;;;4.82;3.25;;;;;;;;;;6280146;22;20019;-85
2023/09/26 14:28:41;;;;;;;4.40;3.60;;;;;;;;;;6308865;22;20018;-84
2023/09/26 14:31:11;;;;;;;5.22;3.70;;;;;;;;;;6307993;22;20015;-85
2023/09/26 14:33:39;;;;;;;4.97;3.17;;;;;;;;;;6281150;22;20018;-85
2023/09/26 14:36:05;;;;;;;4.28;3.50;;;;;;;;;;6281053;22;20008;-85
2023/09/26 14:38:31;;;;;;;3.67;3.22;;;;;;;;;;6281831;22;20063;-85
2023/09/26 14:40:57;;;;;;;5.25;3.22;;;;;;;;;;6280818;22;20069;-85